Impacts TAF Board
For situational awareness. Not to be used for flight planning purposes.
IDs:

KCLE - Cleveland/Hopkins In, OH, US

Issued at 1720 UTC 22 Sep 2018
Updated at 1825 UTC 22 Sep 2018
Potential Impact None Slight Moderate High
Time<<23/19Z 23/20Z 23/21Z 23/22Z 23/23Z 24/00Z 24/01Z 24/02Z 24/03Z 24/04Z 24/05Z 24/06Z 24/07Z
Type PRVL PRVL PRVL PRVL PRVL
VIS >6 >6 >6 >6 >6
CIG -- -- -- -- --
Cover SCT SCT SCT SCT SCT
FltCat VFR VFR VFR VFR VFR
WX -- -- -- -- --
WDir 60 60 60 60 60
WSpd 6 6 6 6 6
WGst -- -- -- -- --
Raw TAF
KCLE 221720Z 2218/2324 03009KT P6SM BKN035
  FM230000 04009KT P6SM SCT035
  FM231200 06006KT P6SM SCT250


METAR Board
Radar Display
Forecast Discussion
For situational awareness. Not to be used for flight planning purposes.